createdAt,value
2018-12-25T00:10:53.024Z,40.13
2018-12-25T00:13:23.353Z,40.16
2018-12-25T00:15:53.724Z,40.14
2018-12-25T00:18:23.983Z,40.13
2018-12-25T00:21:06.147Z,40.18
2018-12-25T00:23:36.412Z,40.14
2018-12-25T00:26:06.778Z,40.13
2018-12-25T00:28:37.105Z,40.15
2018-12-25T00:31:07.388Z,40.17
2018-12-25T00:33:37.648Z,40.16
2018-12-25T00:44:45.828Z,40.18
2018-12-25T00:47:16.110Z,40.21
2018-12-25T00:49:46.384Z,40.25
2018-12-25T00:52:16.713Z,40.21
2018-12-25T00:54:47.074Z,40.22
2018-12-25T00:57:17.330Z,40.27
2018-12-25T00:59:47.649Z,40.29
2018-12-25T01:02:17.903Z,40.29
2018-12-25T01:04:48.276Z,40.31
2018-12-25T01:07:18.647Z,40.20
2018-12-25T01:09:48.976Z,40.12
2018-12-25T01:12:19.228Z,40.04
2018-12-25T01:14:49.586Z,40.02
2018-12-25T01:17:19.846Z,40.00
2018-12-25T01:19:50.119Z,40.09
2018-12-25T01:22:20.380Z,40.09
2018-12-25T01:24:50.628Z,40.11
2018-12-25T01:27:20.986Z,40.10
2018-12-25T01:29:51.312Z,40.09
2018-12-25T01:32:21.663Z,40.08
2018-12-25T01:34:52.038Z,40.09
2018-12-25T01:37:22.370Z,40.08
2018-12-25T01:39:52.628Z,40.08
2018-12-25T01:42:22.909Z,40.09
2018-12-25T01:44:53.313Z,40.10
2018-12-25T01:47:23.625Z,40.10
2018-12-25T01:49:53.908Z,40.08
2018-12-25T01:52:24.231Z,40.08
2018-12-25T01:54:54.529Z,40.10
2018-12-25T01:57:24.859Z,40.10
2018-12-25T01:59:55.179Z,40.10
2018-12-25T02:02:25.515Z,40.10
2018-12-25T02:04:55.841Z,40.10
2018-12-25T02:07:26.110Z,40.10
2018-12-25T02:09:56.430Z,40.09
2018-12-25T02:12:26.687Z,40.09
2018-12-25T02:14:56.972Z,40.12
2018-12-25T02:17:28.849Z,40.12
2018-12-25T02:19:59.144Z,40.11
2018-12-25T02:22:29.400Z,40.18
2018-12-25T02:24:59.687Z,40.11
2018-12-25T02:27:29.971Z,40.13
2018-12-25T02:30:00.362Z,40.13
2018-12-25T02:35:39.046Z,40.15
2018-12-25T02:38:09.343Z,40.16
2018-12-25T02:40:39.676Z,40.16
2018-12-25T02:43:10.034Z,40.15
2018-12-25T02:45:40.347Z,40.13
2018-12-25T02:48:10.629Z,40.12
2018-12-25T02:50:40.886Z,40.15
2018-12-25T02:53:11.143Z,40.16
2018-12-25T02:56:00.476Z,40.16
2018-12-25T02:58:30.820Z,40.17
2018-12-25T03:01:01.185Z,40.17
2018-12-25T03:03:31.495Z,40.18
2018-12-25T03:06:01.803Z,40.19
2018-12-25T03:08:32.132Z,40.20
2018-12-25T03:11:02.504Z,40.19
2018-12-25T03:13:32.841Z,40.20
2018-12-25T03:16:03.182Z,40.18
2018-12-25T03:18:33.546Z,40.19
2018-12-25T03:21:03.822Z,40.20
2018-12-25T03:23:34.167Z,40.19
2018-12-25T03:26:04.488Z,40.20
2018-12-25T03:28:34.788Z,40.21
2018-12-25T03:31:05.276Z,40.21
2018-12-25T03:33:35.643Z,40.21
2018-12-25T03:36:05.972Z,40.22
2018-12-25T03:41:18.442Z,40.24
2018-12-25T03:43:48.783Z,40.26
2018-12-25T03:46:19.052Z,40.24
2018-12-25T03:51:44.282Z,40.24
2018-12-25T03:54:14.573Z,40.24
2018-12-25T03:56:44.835Z,40.23
2018-12-25T04:02:02.007Z,40.25
2018-12-25T04:07:26.854Z,40.32
2018-12-25T04:09:57.225Z,40.30
2018-12-25T04:12:27.544Z,40.28
2018-12-25T04:14:57.909Z,40.30
2018-12-25T04:17:28.306Z,40.28
2018-12-25T04:19:58.598Z,40.30
2018-12-25T04:22:28.921Z,40.30
2018-12-25T04:24:59.285Z,40.29
2018-12-25T04:27:29.615Z,40.26
2018-12-25T04:29:59.979Z,39.93
2018-12-25T04:32:30.259Z,39.75
2018-12-25T04:35:00.512Z,39.55
2018-12-25T04:37:30.890Z,39.45
2018-12-25T04:40:01.146Z,39.32
2018-12-25T04:42:50.309Z,39.26
2018-12-25T04:45:20.638Z,39.21
2018-12-25T04:47:51.010Z,39.21
2018-12-25T04:50:29.190Z,39.16
2018-12-25T04:52:58.705Z,39.13
2018-12-25T04:55:29.028Z,39.07
2018-12-25T04:57:59.317Z,39.02
2018-12-25T05:00:29.588Z,38.99
2018-12-25T05:02:59.870Z,38.97
2018-12-25T05:05:35.401Z,38.91
2018-12-25T05:08:05.797Z,38.90
2018-12-25T05:10:36.052Z,38.83
2018-12-25T05:13:06.405Z,38.82
2018-12-25T05:15:36.741Z,38.78
2018-12-25T05:18:07.127Z,38.76
2018-12-25T05:20:56.508Z,38.76
2018-12-25T05:23:26.888Z,38.71
2018-12-25T05:25:57.213Z,38.69
2018-12-25T05:28:39.003Z,38.75
2018-12-25T05:31:09.374Z,38.67
2018-12-25T05:33:39.748Z,38.68
2018-12-25T05:36:10.079Z,38.67
2018-12-25T05:38:40.397Z,38.60
2018-12-25T05:41:10.688Z,38.58
2018-12-25T05:43:41.018Z,38.63
2018-12-25T05:46:11.272Z,38.62
2018-12-25T05:48:41.602Z,38.56
2018-12-25T05:51:11.854Z,38.57
2018-12-25T05:53:42.139Z,38.53
2018-12-25T05:56:12.465Z,38.53
2018-12-25T05:58:42.815Z,38.48
2018-12-25T06:01:13.149Z,38.43
2018-12-25T06:03:43.444Z,38.43
2018-12-25T06:06:13.721Z,38.41
2018-12-25T06:08:44.107Z,38.41
2018-12-25T06:11:16.585Z,38.36
2018-12-25T06:13:46.950Z,38.35
2018-12-25T06:16:17.226Z,38.35
2018-12-25T06:18:47.593Z,38.31
2018-12-25T06:21:17.926Z,38.32
2018-12-25T06:23:48.186Z,38.22
2018-12-25T06:26:18.513Z,38.23
2018-12-25T06:28:48.783Z,38.18
2018-12-25T06:31:19.038Z,38.19
2018-12-25T06:33:49.293Z,38.17
2018-12-25T06:36:19.703Z,38.15
2018-12-25T06:38:50.037Z,38.14
2018-12-25T06:41:20.368Z,38.11
2018-12-25T06:43:50.634Z,38.04
2018-12-25T06:46:20.930Z,38.06
2018-12-25T06:48:51.270Z,38.02
2018-12-25T06:51:21.904Z,38.02
2018-12-25T06:53:52.229Z,38.02
2018-12-25T06:56:22.712Z,37.94
2018-12-25T06:58:53.049Z,37.95
2018-12-25T07:01:23.387Z,38.36
2018-12-25T07:03:53.643Z,38.77
2018-12-25T07:06:23.993Z,38.79
2018-12-25T07:08:54.255Z,38.75
2018-12-25T07:11:24.612Z,38.58
2018-12-25T07:13:55.042Z,38.51
2018-12-25T07:16:25.315Z,38.59
2018-12-25T07:18:55.616Z,38.53
2018-12-25T07:21:27.542Z,38.65
2018-12-25T07:23:57.963Z,38.55
2018-12-25T07:26:28.357Z,38.72
2018-12-25T07:29:17.626Z,38.68
2018-12-25T07:34:42.636Z,38.72
2018-12-25T07:37:12.892Z,38.70
2018-12-25T07:39:43.242Z,38.49
2018-12-25T07:42:32.602Z,38.85
2018-12-25T07:45:02.871Z,39.08
2018-12-25T07:47:33.205Z,39.21
2018-12-25T07:50:22.431Z,38.98
2018-12-25T07:52:52.773Z,39.14
2018-12-25T07:55:23.079Z,39.16
2018-12-25T07:57:53.404Z,39.12
2018-12-25T08:00:23.737Z,39.17
2018-12-25T08:02:54.026Z,39.12
2018-12-25T08:08:13.630Z,39.07
2018-12-25T08:10:43.963Z,37.48
2018-12-25T08:13:14.252Z,37.71
2018-12-25T08:15:44.579Z,38.04
2018-12-25T08:18:14.869Z,38.33
2018-12-25T08:20:45.127Z,38.39
2018-12-25T08:23:15.482Z,38.47
2018-12-25T08:25:45.858Z,38.47
2018-12-25T08:28:16.143Z,38.49
2018-12-25T08:30:46.414Z,38.52
2018-12-25T08:33:16.754Z,38.53
2018-12-25T08:35:47.042Z,38.53
2018-12-25T08:38:17.303Z,38.54
2018-12-25T08:40:47.667Z,38.54
2018-12-25T08:43:17.991Z,38.55
2018-12-25T08:45:48.288Z,38.54
2018-12-25T08:48:18.550Z,38.58
2018-12-25T08:50:48.908Z,38.57
2018-12-25T08:53:19.171Z,38.58
2018-12-25T08:55:49.491Z,38.57
2018-12-25T08:58:19.848Z,38.58
2018-12-25T09:00:50.111Z,38.58
2018-12-25T09:03:20.391Z,38.60
2018-12-25T09:05:50.727Z,38.60
2018-12-25T09:08:21.087Z,38.59
2018-12-25T09:10:51.427Z,38.59
2018-12-25T09:13:21.714Z,38.57
2018-12-25T09:15:52.039Z,38.56
2018-12-25T09:18:22.402Z,38.56
2018-12-25T09:20:52.661Z,38.57
2018-12-25T09:23:22.942Z,38.56
2018-12-25T09:25:53.282Z,38.56
2018-12-25T09:28:28.779Z,38.56
2018-12-25T09:30:59.032Z,38.53
2018-12-25T09:33:29.368Z,38.55
2018-12-25T09:35:59.691Z,38.55
2018-12-25T09:38:30.021Z,38.55
2018-12-25T09:41:00.344Z,38.54
2018-12-25T09:43:30.687Z,38.53
2018-12-25T09:46:00.966Z,38.53
2018-12-25T09:48:31.300Z,38.51
2018-12-25T09:51:01.626Z,38.52
2018-12-25T09:53:32.085Z,38.52
2018-12-25T09:56:04.011Z,38.51
2018-12-25T09:58:34.382Z,38.52
2018-12-25T10:01:04.755Z,38.52
2018-12-25T10:03:35.085Z,38.52
2018-12-25T10:06:05.435Z,38.51
2018-12-25T10:08:35.761Z,38.49
2018-12-25T10:11:06.112Z,38.48
2018-12-25T10:13:36.442Z,38.48
2018-12-25T10:16:06.800Z,38.45
2018-12-25T10:18:37.060Z,38.45
2018-12-25T10:21:07.528Z,38.46
2018-12-25T10:23:37.870Z,38.47
2018-12-25T10:26:08.146Z,38.45
2018-12-25T10:28:38.402Z,38.44
2018-12-25T10:31:08.739Z,38.42
2018-12-25T10:33:39.086Z,38.42
2018-12-25T10:36:09.448Z,38.42
2018-12-25T10:38:41.337Z,38.42
2018-12-25T10:41:11.684Z,38.39
2018-12-25T10:43:42.019Z,38.38
2018-12-25T10:46:14.774Z,38.39
2018-12-25T10:48:45.116Z,38.39
2018-12-25T10:51:18.223Z,38.39
2018-12-25T10:53:48.547Z,38.37
2018-12-25T10:56:18.885Z,38.39
2018-12-25T10:58:49.241Z,38.39
2018-12-25T11:01:23.172Z,38.38
2018-12-25T11:03:53.533Z,38.36
2018-12-25T11:06:23.857Z,38.37
2018-12-25T11:08:54.209Z,38.35
2018-12-25T11:11:24.549Z,38.35
2018-12-25T11:13:54.909Z,38.33
2018-12-25T11:16:25.259Z,38.35
2018-12-25T11:18:55.624Z,38.33
2018-12-25T11:21:25.957Z,38.30
2018-12-25T11:23:56.308Z,38.31
2018-12-25T11:26:26.634Z,38.31
2018-12-25T11:28:57.000Z,38.31
2018-12-25T11:31:27.255Z,38.28
2018-12-25T11:33:57.614Z,38.25
2018-12-25T11:36:27.883Z,38.24
2018-12-25T11:38:58.242Z,38.23
2018-12-25T11:41:28.492Z,38.22
2018-12-25T11:43:58.847Z,38.23
2018-12-25T11:46:29.098Z,38.24
2018-12-25T11:48:59.458Z,38.22
2018-12-25T11:51:29.784Z,38.23
2018-12-25T11:54:00.071Z,38.22
2018-12-25T11:56:30.415Z,38.22
2018-12-25T11:59:00.695Z,38.23
2018-12-25T12:01:31.027Z,38.18
2018-12-25T12:04:01.403Z,38.18
2018-12-25T12:06:31.655Z,38.19
2018-12-25T12:09:01.937Z,38.18
2018-12-25T12:11:33.821Z,38.18
2018-12-25T12:14:04.185Z,38.19
2018-12-25T12:16:36.066Z,38.17
2018-12-25T12:19:06.451Z,38.17
2018-12-25T12:21:36.776Z,38.18
2018-12-25T12:24:07.067Z,38.18
2018-12-25T12:26:37.321Z,38.17
2018-12-25T12:29:07.617Z,38.17
2018-12-25T12:31:37.943Z,38.21
2018-12-25T12:34:08.303Z,38.20
2018-12-25T12:36:38.630Z,38.21
2018-12-25T12:39:09.004Z,38.22
2018-12-25T12:41:39.337Z,38.21
2018-12-25T12:44:21.790Z,38.20
2018-12-25T12:46:52.065Z,38.21
2018-12-25T12:49:22.436Z,38.25
2018-12-25T12:51:52.722Z,38.25
2018-12-25T12:54:23.016Z,38.24
2018-12-25T12:56:53.281Z,38.24
2018-12-25T12:59:23.642Z,38.25
2018-12-25T13:01:53.979Z,38.22
2018-12-25T13:04:24.321Z,38.25
2018-12-25T13:06:54.592Z,38.26
2018-12-25T13:09:24.918Z,38.27
2018-12-25T13:11:55.261Z,38.25
2018-12-25T13:14:25.585Z,38.27
2018-12-25T13:16:56.011Z,38.28
2018-12-25T13:19:26.353Z,38.29
2018-12-25T13:21:56.712Z,38.28
2018-12-25T13:24:26.966Z,38.25
2018-12-25T13:26:57.385Z,38.29
2018-12-25T13:29:27.718Z,38.30
2018-12-25T13:34:40.331Z,38.32
2018-12-25T13:37:10.711Z,38.31
2018-12-25T13:39:41.035Z,38.34
2018-12-25T13:42:11.332Z,38.32
2018-12-25T13:44:41.582Z,38.31
2018-12-25T13:47:11.862Z,38.33
2018-12-25T13:49:42.130Z,38.33
2018-12-25T13:52:12.428Z,38.36
2018-12-25T13:54:42.791Z,38.34
2018-12-25T13:57:13.049Z,38.33
2018-12-25T13:59:43.349Z,38.33
2018-12-25T14:02:13.727Z,38.33
2018-12-25T14:04:44.002Z,38.33
2018-12-25T14:07:14.332Z,38.34
2018-12-25T14:09:44.681Z,38.34
2018-12-25T14:12:15.003Z,38.34
2018-12-25T14:14:45.383Z,38.35
2018-12-25T14:17:15.719Z,38.34
2018-12-25T14:22:41.066Z,38.35
2018-12-25T14:28:06.674Z,38.37
2018-12-25T14:30:37.031Z,38.38
2018-12-25T14:33:07.288Z,38.37
2018-12-25T14:35:37.638Z,38.38
2018-12-25T14:38:08.008Z,38.36
2018-12-25T14:40:38.365Z,38.36
2018-12-25T14:43:08.746Z,38.35
2018-12-25T14:45:39.076Z,38.36
2018-12-25T14:48:09.443Z,38.35
2018-12-25T14:50:39.705Z,38.34
2018-12-25T14:53:10.082Z,38.35
2018-12-25T14:55:40.352Z,37.89
2018-12-25T14:58:12.258Z,37.82
2018-12-25T15:00:42.521Z,37.99
2018-12-25T15:03:12.843Z,37.92
2018-12-25T15:05:43.206Z,37.87
2018-12-25T15:08:13.465Z,37.73
2018-12-25T15:10:43.794Z,37.86
2018-12-25T15:13:14.164Z,37.93
2018-12-25T15:18:33.751Z,37.35
2018-12-25T15:21:04.022Z,37.27
2018-12-25T15:23:34.279Z,36.87
2018-12-25T15:26:04.608Z,36.90
2018-12-25T15:28:34.904Z,36.94
2018-12-25T15:31:05.276Z,36.93
2018-12-25T15:33:35.636Z,36.94
2018-12-25T15:36:05.969Z,36.79
2018-12-25T15:38:36.255Z,36.40
2018-12-25T15:41:06.523Z,36.25
2018-12-25T15:43:36.946Z,36.22
2018-12-25T15:46:07.304Z,36.17
2018-12-25T15:48:37.712Z,36.00
2018-12-25T15:51:08.540Z,35.96
2018-12-25T15:53:38.834Z,35.99
2018-12-25T15:56:09.179Z,35.85
2018-12-25T15:58:39.547Z,35.83
2018-12-25T16:01:10.008Z,35.76
2018-12-25T16:03:52.685Z,35.64
2018-12-25T16:06:22.997Z,35.66
2018-12-25T16:08:53.332Z,35.58
2018-12-25T16:11:23.729Z,35.78
2018-12-25T16:13:54.017Z,35.80
2018-12-25T16:16:24.362Z,35.71
2018-12-25T16:18:54.708Z,35.72
2018-12-25T16:21:25.432Z,35.62
2018-12-25T16:23:55.780Z,35.62
2018-12-25T16:26:26.153Z,35.57
2018-12-25T16:28:56.538Z,35.68
2018-12-25T16:31:46.981Z,35.62
2018-12-25T16:34:17.349Z,35.66
2018-12-25T16:36:47.759Z,35.56
2018-12-25T16:39:18.076Z,35.47
2018-12-25T16:41:48.719Z,35.18
2018-12-25T16:44:19.105Z,35.30
2018-12-25T16:46:49.415Z,35.31
2018-12-25T16:52:03.167Z,35.60
2018-12-25T16:54:33.532Z,35.87
2018-12-25T16:57:03.876Z,36.51
2018-12-25T16:59:34.239Z,37.33
2018-12-25T17:02:04.593Z,38.11
2018-12-25T17:04:35.027Z,38.43
2018-12-25T17:07:24.787Z,38.21
2018-12-25T17:09:55.156Z,38.29
2018-12-25T17:12:25.502Z,38.52
2018-12-25T17:14:57.427Z,38.82
2018-12-25T17:17:27.703Z,38.91
2018-12-25T17:19:58.031Z,38.93
2018-12-25T17:22:28.406Z,39.02
2018-12-25T17:25:01.130Z,39.07
2018-12-25T17:27:31.471Z,39.37
2018-12-25T17:30:05.154Z,39.46
2018-12-25T17:32:35.909Z,39.49
2018-12-25T17:35:08.557Z,39.83
2018-12-25T17:37:38.891Z,39.99
2018-12-25T17:40:10.981Z,40.22
2018-12-25T17:42:41.321Z,40.39
2018-12-25T17:45:12.036Z,40.47
2018-12-25T17:47:43.373Z,40.54
2018-12-25T17:50:13.692Z,40.63
2018-12-25T17:52:44.023Z,40.61
2018-12-25T17:55:14.377Z,40.66
2018-12-25T17:58:03.562Z,40.75
2018-12-25T18:00:35.485Z,40.76
2018-12-25T18:03:05.852Z,40.90
2018-12-25T18:05:36.193Z,40.87
2018-12-25T18:08:06.552Z,41.13
2018-12-25T18:10:37.207Z,41.29
2018-12-25T18:13:07.643Z,41.26
2018-12-25T18:15:38.003Z,41.21
2018-12-25T18:18:08.440Z,41.19
2018-12-25T18:20:38.779Z,41.25
2018-12-25T18:23:09.152Z,41.14
2018-12-25T18:25:39.484Z,41.52
2018-12-25T18:28:28.769Z,41.30
2018-12-25T18:30:59.200Z,41.28
2018-12-25T18:33:29.593Z,41.35
2018-12-25T18:35:59.955Z,41.50
2018-12-25T18:38:30.357Z,41.65
2018-12-25T18:41:00.752Z,41.61
2018-12-25T18:43:31.402Z,41.52
2018-12-25T18:46:01.769Z,41.65
2018-12-25T18:48:32.123Z,41.63
2018-12-25T18:51:02.515Z,41.64
2018-12-25T18:53:32.874Z,41.72
2018-12-25T18:56:03.238Z,41.66
2018-12-25T18:58:33.913Z,41.68
2018-12-25T19:01:04.366Z,41.60
2018-12-25T19:03:34.809Z,41.56
2018-12-25T19:06:05.217Z,41.59
2018-12-25T19:08:35.553Z,41.58
2018-12-25T19:11:05.910Z,41.60
2018-12-25T19:13:36.194Z,41.61
2018-12-25T19:16:07.281Z,41.56
2018-12-25T19:18:37.964Z,41.51
2018-12-25T19:21:08.643Z,41.50
2018-12-25T19:23:46.254Z,41.46
2018-12-25T19:26:16.617Z,41.40
2018-12-25T19:28:47.068Z,41.36
2018-12-25T19:31:25.056Z,41.35
2018-12-25T19:33:55.447Z,41.29
2018-12-25T19:36:25.789Z,41.26
2018-12-25T19:38:56.179Z,41.24
2018-12-25T19:41:26.519Z,41.20
2018-12-25T19:43:56.945Z,41.25
2018-12-25T19:46:27.421Z,41.25
2018-12-25T19:48:57.792Z,41.15
2018-12-25T19:51:29.769Z,41.05
2018-12-25T19:54:00.148Z,41.08
2018-12-25T19:56:30.500Z,41.09
2018-12-25T19:59:00.787Z,41.10
2018-12-25T20:01:31.195Z,41.12
2018-12-25T20:04:25.177Z,41.11
2018-12-25T20:07:33.622Z,41.10
2018-12-25T20:10:11.604Z,41.09
2018-12-25T20:13:20.063Z,41.08
2018-12-25T20:16:23.564Z,41.10
2018-12-25T20:19:32.059Z,41.05
2018-12-25T20:22:40.480Z,41.02
2018-12-25T20:25:48.896Z,41.03
2018-12-25T20:28:57.308Z,41.05
2018-12-25T20:31:52.718Z,41.07
2018-12-25T20:34:47.972Z,41.06
2018-12-25T20:37:46.105Z,41.02
2018-12-25T20:40:54.528Z,41.00
2018-12-25T20:44:03.010Z,40.97
2018-12-25T20:47:11.430Z,40.97
2018-12-25T20:50:19.909Z,40.95
2018-12-25T20:53:28.347Z,40.91
2018-12-25T20:56:36.896Z,40.89
2018-12-25T20:59:45.328Z,40.87
2018-12-25T21:02:53.769Z,40.75
2018-12-25T21:06:02.488Z,40.65
2018-12-25T21:09:10.919Z,40.60
2018-12-25T21:12:21.632Z,40.51
2018-12-25T21:15:30.016Z,40.48
2018-12-25T21:18:38.522Z,40.39
2018-12-25T21:21:46.868Z,40.26
2018-12-25T21:24:55.368Z,40.15
2018-12-25T21:27:43.919Z,40.07
2018-12-25T21:30:33.449Z,39.98
2018-12-25T21:33:03.801Z,39.89
2018-12-25T21:35:34.201Z,39.87
2018-12-25T21:38:04.533Z,39.81
2018-12-25T21:40:34.989Z,39.76
2018-12-25T21:43:05.323Z,39.71
2018-12-25T21:45:35.660Z,39.65
2018-12-25T21:48:05.997Z,39.67
2018-12-25T21:50:36.357Z,39.59
2018-12-25T21:53:06.694Z,39.55
2018-12-25T21:55:37.096Z,39.51
2018-12-25T21:58:07.428Z,39.52
2018-12-25T22:00:37.825Z,39.46
2018-12-25T22:03:08.191Z,39.38
2018-12-25T22:05:38.508Z,39.36
2018-12-25T22:08:08.883Z,39.33
2018-12-25T22:10:39.235Z,39.29
2018-12-25T22:13:09.580Z,39.25
2018-12-25T22:15:42.546Z,39.25
2018-12-25T22:18:12.897Z,39.21
2018-12-25T22:20:43.262Z,39.21
2018-12-25T22:23:13.594Z,39.22
2018-12-25T22:25:44.108Z,39.16
2018-12-25T22:28:14.570Z,39.09
2018-12-25T22:33:34.184Z,39.01
2018-12-25T22:36:16.070Z,38.92
2018-12-25T22:38:46.423Z,38.90
2018-12-25T22:41:16.791Z,38.99
2018-12-25T22:43:47.145Z,39.57
2018-12-25T22:46:17.414Z,39.94
2018-12-25T22:48:48.723Z,40.10
2018-12-25T22:51:19.054Z,40.24
2018-12-25T22:53:49.311Z,40.35
2018-12-25T22:56:19.587Z,40.45
2018-12-25T22:58:49.851Z,40.55
2018-12-25T23:01:31.800Z,40.66
2018-12-25T23:04:02.170Z,40.69
2018-12-25T23:06:32.504Z,40.74
2018-12-25T23:11:59.147Z,40.69
2018-12-25T23:14:29.486Z,40.84
2018-12-25T23:17:18.889Z,41.64
2018-12-25T23:19:49.244Z,42.09
2018-12-25T23:22:19.601Z,42.69
2018-12-25T23:24:49.851Z,42.52
2018-12-25T23:27:20.228Z,41.77
2018-12-25T23:29:50.554Z,41.13
2018-12-25T23:32:20.818Z,40.94
2018-12-25T23:34:51.239Z,40.74
2018-12-25T23:37:21.553Z,40.60
2018-12-25T23:39:51.818Z,40.60
2018-12-25T23:42:22.072Z,40.73
2018-12-25T23:44:52.331Z,40.83
2018-12-25T23:47:22.608Z,40.94
2018-12-25T23:49:52.872Z,41.00
2018-12-25T23:52:23.188Z,41.02
2018-12-25T23:54:53.456Z,41.00
2018-12-25T23:57:23.781Z,40.98
2018-12-25T23:59:54.170Z,40.98
